Time;durP1;ratioP1;P1;durP2;ratioP2;P2;SDS_P1;SDS_P2;PMS_P1;PMS_P2;Temp;Humidity;BMP_temperature;BMP_pressure;BME280_temperature;BME280_humidity;BME280_pressure;Samples;Min_cycle;Max_cycle;Signal;HPM_P1;HPM_P2
2023/09/05 00:01:52;;;;;;;4.47;4.03;;;14.60;99.90;;;;;;5044966;28;20563;-50
2023/09/05 00:04:19;;;;;;;4.30;3.93;;;14.50;99.90;;;;;;5045650;28;20479;-50
2023/09/05 00:06:47;;;;;;;4.17;3.83;;;14.50;99.90;;;;;;5044927;28;20472;-49
2023/09/05 00:09:15;;;;;;;4.93;4.43;;;14.50;99.90;;;;;;5042973;28;20443;-51
2023/09/05 00:11:41;;;;;;;6.13;3.93;;;14.60;99.90;;;;;;5049604;28;20478;-50
2023/09/05 00:14:10;;;;;;;8.60;3.63;;;14.50;99.90;;;;;;5043417;28;20469;-51
2023/09/05 00:16:37;;;;;;;4.13;3.40;;;14.50;99.90;;;;;;5044201;28;20462;-53
2023/09/05 00:19:04;;;;;;;6.53;3.27;;;14.50;99.90;;;;;;5032992;28;21002;-53
2023/09/05 00:21:31;;;;;;;4.13;3.73;;;14.50;99.90;;;;;;5039302;28;20482;-50
2023/09/05 00:24:31;;;;;;;7.10;3.70;;;14.50;99.90;;;;;;5039028;28;20513;-50
2023/09/05 00:26:58;;;;;;;4.30;4.00;;;14.50;99.90;;;;;;5045876;28;20556;-50
2023/09/05 00:29:27;;;;;;;5.30;3.30;;;14.50;99.90;;;;;;5046344;28;20484;-50
2023/09/05 00:31:54;;;;;;;4.33;3.90;;;14.50;99.90;;;;;;5049717;28;20481;-50
2023/09/05 00:34:21;;;;;;;3.67;3.37;;;14.50;99.90;;;;;;5042258;28;20459;-49
2023/09/05 00:36:48;;;;;;;4.70;4.20;;;14.40;99.90;;;;;;5048054;28;21056;-51
2023/09/05 00:39:16;;;;;;;4.47;4.00;;;14.50;99.90;;;;;;5046930;28;20469;-50
2023/09/05 00:41:42;;;;;;;6.90;4.20;;;14.50;99.90;;;;;;5046035;28;20490;-49
2023/09/05 00:44:13;;;;;;;4.10;3.33;;;14.50;99.90;;;;;;5048021;28;20486;-49
2023/09/05 00:46:42;;;;;;;5.83;4.00;;;14.40;99.90;;;;;;5046666;28;20967;-50
2023/09/05 00:49:10;;;;;;;5.70;3.73;;;14.50;99.90;;;;;;5050724;28;20445;-50
2023/09/05 00:51:38;;;;;;;4.60;4.20;;;14.50;99.90;;;;;;5043348;28;20983;-54
2023/09/05 00:54:06;;;;;;;4.50;4.10;;;14.50;99.90;;;;;;5043728;28;20825;-54
2023/09/05 00:56:35;;;;;;;4.53;3.83;;;14.40;99.90;;;;;;5050626;28;20932;-53
2023/09/05 00:59:02;;;;;;;4.87;3.93;;;14.50;99.90;;;;;;5044150;28;20508;-53
2023/09/05 01:01:28;;;;;;;3.50;3.20;;;14.40;99.90;;;;;;5041575;28;20475;-53
2023/09/05 01:03:57;;;;;;;3.63;3.27;;;14.40;99.90;;;;;;5033837;28;20496;-53
2023/09/05 01:06:37;;;;;;;4.13;3.80;;;14.40;99.90;;;;;;5032538;28;20447;-53
2023/09/05 01:09:20;;;;;;;4.10;3.80;;;14.40;99.90;;;;;;5032603;28;20629;-53
2023/09/05 01:11:48;;;;;;;5.53;3.83;;;14.40;99.90;;;;;;5039755;28;20477;-54
2023/09/05 01:14:15;;;;;;;5.73;4.20;;;14.50;99.90;;;;;;5045633;28;20540;-53
2023/09/05 01:16:45;;;;;;;6.30;4.30;;;14.50;99.90;;;;;;5040853;28;20967;-53
2023/09/05 01:19:15;;;;;;;11.77;4.43;;;14.50;99.90;;;;;;5050262;28;20558;-54
2023/09/05 01:21:51;;;;;;;5.70;4.33;;;14.40;99.90;;;;;;5051865;28;20548;-53
2023/09/05 01:24:21;;;;;;;10.83;4.50;;;14.40;99.90;;;;;;5044956;28;20474;-53
2023/09/05 01:26:48;;;;;;;4.83;4.33;;;14.50;99.90;;;;;;5040822;28;20774;-54
2023/09/05 01:29:16;;;;;;;5.67;4.47;;;14.50;99.90;;;;;;5043667;28;21095;-53
2023/09/05 01:31:43;;;;;;;4.60;4.20;;;14.50;99.90;;;;;;5044748;28;20839;-54
2023/09/05 01:34:10;;;;;;;5.33;4.50;;;14.50;99.90;;;;;;5046394;28;20574;-53
2023/09/05 01:36:36;;;;;;;20.37;5.33;;;14.50;99.90;;;;;;5041905;28;20466;-53
2023/09/05 01:39:03;;;;;;;6.03;4.27;;;14.50;99.90;;;;;;5041238;28;20489;-53
2023/09/05 01:41:31;;;;;;;5.87;4.20;;;14.50;99.90;;;;;;5031522;28;20475;-53
2023/09/05 01:43:57;;;;;;;5.90;4.17;;;14.50;99.90;;;;;;5044228;28;20543;-53
2023/09/05 01:46:24;;;;;;;4.10;3.80;;;14.50;99.90;;;;;;5044888;28;20757;-54
2023/09/05 01:48:51;;;;;;;7.30;4.97;;;14.50;99.90;;;;;;5039414;28;20917;-53
2023/09/05 01:51:17;;;;;;;5.10;4.60;;;14.50;99.90;;;;;;5042418;28;20485;-54
2023/09/05 01:53:44;;;;;;;5.10;4.17;;;14.50;99.90;;;;;;5035041;28;20516;-53
2023/09/05 01:56:10;;;;;;;4.53;4.13;;;14.50;99.90;;;;;;5043428;28;20969;-54
2023/09/05 01:58:38;;;;;;;4.30;4.00;;;14.50;99.90;;;;;;5044936;28;20461;-53
2023/09/05 02:01:05;;;;;;;4.80;4.13;;;14.50;99.90;;;;;;5047366;28;20882;-53
2023/09/05 02:03:31;;;;;;;4.70;4.33;;;14.60;99.90;;;;;;5042596;28;20874;-53
2023/09/05 02:05:58;;;;;;;5.07;4.33;;;14.60;99.90;;;;;;5040412;28;20484;-53
2023/09/05 02:08:25;;;;;;;4.93;4.43;;;14.60;99.90;;;;;;5045063;28;20963;-52
2023/09/05 02:10:51;;;;;;;4.97;4.50;;;14.70;99.90;;;;;;5041118;28;20482;-53
2023/09/05 02:13:18;;;;;;;5.73;3.80;;;14.70;99.90;;;;;;5050305;28;20501;-54
2023/09/05 02:15:46;;;;;;;7.47;4.47;;;14.70;99.90;;;;;;5052020;28;20496;-53
2023/09/05 02:18:12;;;;;;;5.37;4.83;;;14.80;99.90;;;;;;5046537;28;20449;-56
2023/09/05 02:20:40;;;;;;;4.53;4.13;;;14.80;99.90;;;;;;5048167;28;20457;-53
2023/09/05 02:29:56;;;;;;;6.53;4.60;;;14.80;99.90;;;;;;5026674;28;20473;-53
2023/09/05 02:32:24;;;;;;;5.70;4.10;;;14.80;99.90;;;;;;5005722;28;20491;-53
2023/09/05 02:34:52;;;;;;;5.23;4.30;;;14.80;99.90;;;;;;4991153;28;20472;-53
2023/09/05 02:37:19;;;;;;;8.83;4.90;;;14.80;99.90;;;;;;4993032;28;20547;-53
2023/09/05 02:39:45;;;;;;;5.17;4.20;;;14.80;99.90;;;;;;4994556;28;20551;-54
2023/09/05 02:42:12;;;;;;;5.00;4.30;;;14.80;99.90;;;;;;4994377;28;20924;-53
2023/09/05 02:44:38;;;;;;;5.73;4.20;;;14.80;99.90;;;;;;4988377;28;20575;-53
2023/09/05 02:47:05;;;;;;;5.80;5.07;;;14.80;99.90;;;;;;4993759;28;20555;-53
2023/09/05 02:49:33;;;;;;;4.73;4.07;;;14.80;99.90;;;;;;4995045;28;20452;-53
2023/09/05 02:51:59;;;;;;;5.50;4.13;;;14.80;99.90;;;;;;4993613;28;20575;-53
2023/09/05 02:54:28;;;;;;;4.40;4.00;;;14.70;99.90;;;;;;4994281;28;20538;-54
2023/09/05 02:56:55;;;;;;;6.17;4.03;;;14.70;99.90;;;;;;4992942;28;20950;-53
2023/09/05 02:59:22;;;;;;;4.37;3.53;;;14.70;99.90;;;;;;4994731;28;20954;-54
2023/09/05 03:01:48;;;;;;;6.33;3.77;;;14.70;99.90;;;;;;4992523;28;20484;-54
2023/09/05 03:04:15;;;;;;;9.37;4.40;;;14.60;99.90;;;;;;4985430;28;20916;-53
2023/09/05 03:06:43;;;;;;;8.73;4.00;;;14.60;99.90;;;;;;4993341;28;20951;-55
2023/09/05 03:09:10;;;;;;;6.63;4.23;;;14.60;99.90;;;;;;4994852;28;20506;-53
2023/09/05 03:11:36;;;;;;;6.70;3.70;;;14.50;99.90;;;;;;4988838;28;20508;-54
2023/09/05 03:14:03;;;;;;;4.80;4.30;;;14.50;99.90;;;;;;4992214;28;20498;-54
2023/09/05 03:16:29;;;;;;;6.93;3.80;;;14.50;99.90;;;;;;4995046;28;20552;-53
2023/09/05 03:18:59;;;;;;;4.03;3.73;;;14.50;99.90;;;;;;4994785;28;21208;-54
2023/09/05 03:21:26;;;;;;;5.47;3.90;;;14.50;99.90;;;;;;4993325;28;20530;-54
2023/09/05 03:23:54;;;;;;;7.50;4.10;;;14.40;99.90;;;;;;4990923;28;20552;-54
2023/09/05 03:26:20;;;;;;;6.10;4.70;;;14.30;99.90;;;;;;4992191;28;21025;-53
2023/09/05 03:28:47;;;;;;;4.90;4.47;;;14.30;99.90;;;;;;4991919;28;20460;-53
2023/09/05 03:31:14;;;;;;;5.97;4.00;;;14.30;99.90;;;;;;4997266;28;20482;-53
2023/09/05 03:33:41;;;;;;;4.97;4.00;;;14.20;99.90;;;;;;4993658;28;20476;-54
2023/09/05 03:36:09;;;;;;;4.30;4.00;;;14.20;99.90;;;;;;4996242;28;20516;-53
2023/09/05 03:38:35;;;;;;;4.10;3.73;;;14.10;99.90;;;;;;4994472;28;20822;-53
2023/09/05 03:41:03;;;;;;;3.83;3.50;;;14.10;99.90;;;;;;4993889;28;20480;-54
2023/09/05 03:43:30;;;;;;;11.67;3.60;;;14.00;99.90;;;;;;4993103;28;20500;-54
2023/09/05 03:45:56;;;;;;;4.97;3.80;;;14.00;99.90;;;;;;4989989;28;20508;-53
2023/09/05 03:48:23;;;;;;;6.47;4.00;;;14.00;99.90;;;;;;4995067;28;20568;-53
2023/09/05 03:50:49;;;;;;;4.40;4.00;;;13.90;99.90;;;;;;4994207;28;20472;-53
2023/09/05 03:53:16;;;;;;;6.23;3.30;;;13.90;99.90;;;;;;4996149;28;20556;-53
2023/09/05 03:55:43;;;;;;;5.03;3.90;;;13.90;99.90;;;;;;4992378;28;20492;-53
2023/09/05 03:58:11;;;;;;;4.10;3.70;;;13.80;99.90;;;;;;4993011;28;20465;-53
2023/09/05 04:00:37;;;;;;;7.63;3.70;;;13.80;99.90;;;;;;4994899;28;20472;-53
2023/09/05 04:03:04;;;;;;;7.63;3.87;;;13.70;99.90;;;;;;4991382;28;20492;-54
2023/09/05 04:05:31;;;;;;;4.83;3.57;;;13.70;99.90;;;;;;4992393;28;20571;-53
2023/09/05 04:07:57;;;;;;;4.13;3.83;;;13.70;99.90;;;;;;4992175;28;20559;-53
2023/09/05 04:10:24;;;;;;;7.97;4.20;;;13.70;99.90;;;;;;4992592;28;20951;-54
2023/09/05 04:12:51;;;;;;;6.60;3.97;;;13.60;99.90;;;;;;4993226;28;21045;-53
2023/09/05 04:15:21;;;;;;;3.77;3.50;;;13.60;99.90;;;;;;4989275;28;20463;-54
2023/09/05 04:17:50;;;;;;;4.30;4.00;;;13.60;99.90;;;;;;4992432;28;20496;-53
2023/09/05 04:20:17;;;;;;;13.63;4.63;;;13.60;99.90;;;;;;4989886;28;20465;-53
2023/09/05 04:22:43;;;;;;;4.77;3.87;;;13.60;99.90;;;;;;4988560;28;20508;-53
2023/09/05 04:25:10;;;;;;;9.43;3.63;;;13.50;99.90;;;;;;4992080;28;20539;-54
2023/09/05 04:27:36;;;;;;;4.80;4.10;;;13.50;99.90;;;;;;4992955;28;21145;-53
2023/09/05 04:30:04;;;;;;;3.73;3.53;;;13.50;99.90;;;;;;4992383;28;20535;-53
2023/09/05 04:32:31;;;;;;;4.50;3.27;;;13.50;99.90;;;;;;4993638;28;20492;-53
2023/09/05 04:35:00;;;;;;;4.83;4.07;;;13.50;99.90;;;;;;4991782;28;20464;-53
2023/09/05 04:37:27;;;;;;;4.70;4.30;;;13.50;99.90;;;;;;4989744;28;20549;-53
2023/09/05 04:39:54;;;;;;;4.27;3.87;;;13.50;99.90;;;;;;4992123;28;20998;-53
2023/09/05 04:42:21;;;;;;;6.00;4.00;;;13.50;99.90;;;;;;4995421;28;20523;-55
2023/09/05 04:44:50;;;;;;;4.87;3.97;;;13.50;99.90;;;;;;4990783;28;20565;-54
2023/09/05 04:47:19;;;;;;;7.60;4.37;;;13.50;99.90;;;;;;4991487;28;20540;-53
2023/09/05 04:49:47;;;;;;;5.67;3.90;;;13.50;99.90;;;;;;4995005;28;20461;-52
2023/09/05 04:52:14;;;;;;;23.27;6.80;;;13.50;99.90;;;;;;4992942;28;20468;-53
2023/09/05 04:54:41;;;;;;;4.80;4.20;;;13.50;99.90;;;;;;4989636;28;20467;-53
2023/09/05 04:57:10;;;;;;;8.77;3.70;;;13.50;99.90;;;;;;4992921;28;20453;-53
2023/09/05 04:59:36;;;;;;;11.50;4.60;;;13.60;99.90;;;;;;4993329;28;20464;-53
2023/09/05 05:02:03;;;;;;;7.33;4.70;;;13.60;99.90;;;;;;4989989;28;20520;-53
2023/09/05 05:04:30;;;;;;;4.33;3.97;;;13.70;99.90;;;;;;4992816;28;20532;-53
2023/09/05 05:06:58;;;;;;;4.80;4.03;;;13.70;99.90;;;;;;4994309;28;20641;-53
2023/09/05 05:09:24;;;;;;;3.93;3.60;;;13.70;99.90;;;;;;4990019;28;20558;-53
2023/09/05 05:11:51;;;;;;;5.68;3.50;;;13.90;99.90;;;;;;4986052;28;20468;-54
2023/09/05 05:14:17;;;;;;;4.37;3.97;;;14.00;99.90;;;;;;4987322;28;20292;-54
2023/09/05 05:16:44;;;;;;;9.07;4.37;;;14.00;99.90;;;;;;4990028;28;20546;-54
2023/09/05 05:19:11;;;;;;;3.97;3.63;;;14.30;99.90;;;;;;4988293;28;20452;-54
2023/09/05 05:21:39;;;;;;;4.57;4.17;;;14.40;99.90;;;;;;4992354;28;20465;-52
2023/09/05 05:24:07;;;;;;;4.20;3.90;;;14.50;99.90;;;;;;4992364;28;20448;-53
2023/09/05 05:26:34;;;;;;;5.70;3.63;;;14.60;99.90;;;;;;4986120;28;21005;-53
2023/09/05 05:29:01;;;;;;;5.50;3.90;;;14.70;99.90;;;;;;4989175;28;20894;-53
2023/09/05 05:31:27;;;;;;;6.53;3.90;;;14.80;99.90;;;;;;4990304;28;20488;-53
2023/09/05 05:33:54;;;;;;;4.07;3.67;;;15.00;99.90;;;;;;4990506;28;20540;-53
2023/09/05 05:36:21;;;;;;;4.00;3.60;;;15.00;99.90;;;;;;4987287;28;20548;-53
2023/09/05 05:38:47;;;;;;;4.70;4.20;;;15.10;99.90;;;;;;4993862;28;20605;-54
2023/09/05 05:41:18;;;;;;;5.10;3.70;;;15.30;99.90;;;;;;4991497;28;20496;-53
2023/09/05 05:43:45;;;;;;;4.37;3.60;;;15.40;99.90;;;;;;4986477;28;20499;-54
2023/09/05 05:46:13;;;;;;;6.80;4.57;;;15.40;99.90;;;;;;4990637;28;20512;-52
2023/09/05 05:48:40;;;;;;;5.23;3.90;;;15.50;99.90;;;;;;4991608;28;20444;-54
2023/09/05 05:51:06;;;;;;;7.43;4.33;;;15.60;99.90;;;;;;4991729;28;20468;-53
2023/09/05 05:53:33;;;;;;;7.60;4.53;;;15.70;99.90;;;;;;4991325;28;20990;-53
2023/09/05 05:56:00;;;;;;;6.83;4.73;;;15.80;99.90;;;;;;4990174;28;20492;-53
2023/09/05 05:58:28;;;;;;;8.23;4.13;;;15.90;99.90;;;;;;4990250;28;20917;-53
2023/09/05 06:00:55;;;;;;;6.80;4.23;;;16.00;99.90;;;;;;4985235;28;20484;-53
2023/09/05 06:03:22;;;;;;;5.57;3.80;;;16.10;99.90;;;;;;4997615;28;20472;-53
2023/09/05 06:05:50;;;;;;;8.37;4.33;;;16.20;99.90;;;;;;4988822;28;20570;-53
2023/09/05 06:08:17;;;;;;;5.60;4.53;;;16.20;99.90;;;;;;4992794;28;20943;-53
2023/09/05 06:10:45;;;;;;;7.30;4.13;;;16.30;99.90;;;;;;4991708;28;20507;-53
2023/09/05 06:13:12;;;;;;;7.83;5.07;;;16.40;99.90;;;;;;4989890;28;20479;-53
2023/09/05 06:15:40;;;;;;;10.37;4.33;;;16.50;99.90;;;;;;4989366;28;20456;-53
2023/09/05 06:18:08;;;;;;;9.13;4.30;;;16.60;86.20;;;;;;4990461;28;20499;-54
2023/09/05 06:20:35;;;;;;;4.40;4.00;;;16.70;21.50;;;;;;4991880;28;20966;-53
2023/09/05 06:23:02;;;;;;;5.60;4.10;;;16.70;24.00;;;;;;4986551;28;21013;-53
2023/09/05 06:25:28;;;;;;;5.07;3.80;;;16.80;32.40;;;;;;4978765;28;20986;-53
2023/09/05 06:27:55;;;;;;;20.63;4.37;;;16.80;36.10;;;;;;4986009;28;20555;-54
2023/09/05 06:30:22;;;;;;;5.37;3.97;;;17.00;38.60;;;;;;4980561;28;21174;-53
2023/09/05 06:32:50;;;;;;;5.63;4.23;;;17.10;50.50;;;;;;4988786;28;21010;-53
2023/09/05 06:35:17;;;;;;;8.80;3.80;;;17.20;53.00;;;;;;4990007;28;20560;-53
2023/09/05 06:37:43;;;;;;;4.40;3.60;;;17.30;59.30;;;;;;4984873;28;20551;-54
2023/09/05 06:40:12;;;;;;;5.50;3.47;;;17.40;60.40;;;;;;4987499;28;20552;-53
2023/09/05 06:42:39;;;;;;;4.40;4.00;;;17.50;61.60;;;;;;4985825;28;20499;-54
2023/09/05 06:45:06;;;;;;;4.83;3.90;;;17.50;64.80;;;;;;4994325;28;20551;-54
2023/09/05 06:47:33;;;;;;;6.33;3.70;;;17.60;68.80;;;;;;4983424;28;20581;-54
2023/09/05 06:50:05;;;;;;;6.00;3.70;;;17.70;77.30;;;;;;4973230;28;21076;-53
2023/09/05 06:52:32;;;;;;;10.67;4.50;;;17.80;82.80;;;;;;4979765;28;20488;-53
2023/09/05 06:54:58;;;;;;;8.80;3.87;;;17.90;92.60;;;;;;4984169;28;20471;-53
2023/09/05 06:57:25;;;;;;;7.20;4.03;;;18.20;93.20;;;;;;4981395;28;20511;-54
2023/09/05 06:59:52;;;;;;;6.33;3.73;;;18.30;99.90;;;;;;4988929;28;20551;-54
2023/09/05 07:02:19;;;;;;;3.73;3.23;;;18.30;99.90;;;;;;4992132;28;20583;-54
2023/09/05 07:04:46;;;;;;;4.03;3.63;;;18.40;99.90;;;;;;4987001;28;20548;-53
2023/09/05 07:07:13;;;;;;;7.60;3.73;;;18.60;99.90;;;;;;4989843;28;20576;-54
2023/09/05 07:09:40;;;;;;;8.60;3.80;;;18.60;99.90;;;;;;4988579;28;20469;-54
2023/09/05 07:12:07;;;;;;;3.87;3.57;;;18.80;99.90;;;;;;4984727;28;20571;-54
2023/09/05 07:14:34;;;;;;;6.87;3.53;;;18.90;99.90;;;;;;4984856;28;20965;-54
2023/09/05 07:17:01;;;;;;;4.23;3.20;;;18.90;99.90;;;;;;4992182;28;20823;-53
2023/09/05 07:19:29;;;;;;;6.20;3.57;;;19.00;99.90;;;;;;4992263;28;20499;-54
2023/09/05 07:21:56;;;;;;;6.77;3.70;;;19.00;99.90;;;;;;4987838;28;20595;-53
2023/09/05 07:24:23;;;;;;;5.60;3.30;;;19.10;99.90;;;;;;4986058;28;20518;-53
2023/09/05 07:26:50;;;;;;;4.90;3.47;;;19.20;99.90;;;;;;4986252;28;20576;-53
2023/09/05 07:29:17;;;;;;;6.03;3.67;;;19.30;99.90;;;;;;4987704;28;20551;-53
2023/09/05 07:31:43;;;;;;;5.33;3.37;;;19.40;1.40;;;;;;4984943;28;20563;-53
2023/09/05 07:34:10;;;;;;;5.27;3.20;;;19.40;99.90;;;;;;4987710;28;20523;-53
2023/09/05 07:36:39;;;;;;;4.47;3.00;;;19.60;99.90;;;;;;4993287;28;20551;-52
2023/09/05 07:39:05;;;;;;;3.80;2.90;;;19.80;99.90;;;;;;4997310;28;20492;-53
2023/09/05 07:41:34;;;;;;;5.80;3.23;;;20.00;99.90;;;;;;4996196;28;20532;-49
2023/09/05 07:44:00;;;;;;;12.90;3.50;;;20.10;99.90;;;;;;4992330;28;20555;-50
2023/09/05 07:46:27;;;;;;;8.63;3.30;;;20.10;99.90;;;;;;4989954;28;20595;-51
2023/09/05 07:48:53;;;;;;;4.60;3.13;;;20.30;99.90;;;;;;4994841;28;20499;-51
2023/09/05 07:51:22;;;;;;;8.57;2.80;;;20.30;99.90;;;;;;4992023;28;20566;-50
2023/09/05 07:53:51;;;;;;;3.20;3.00;;;20.30;20.10;;;;;;4994869;28;20950;-51
2023/09/05 07:56:17;;;;;;;6.60;3.43;;;20.50;81.00;;;;;;4994249;28;20519;-51
2023/09/05 07:58:45;;;;;;;5.53;3.07;;;20.60;21.50;;;;;;4992484;28;20496;-51
2023/09/05 08:01:12;;;;;;;3.67;2.70;;;20.70;28.60;;;;;;4987921;28;21064;-50
2023/09/05 08:03:38;;;;;;;9.83;3.07;;;20.90;40.40;;;;;;4988048;28;20540;-50
2023/09/05 08:06:05;;;;;;;6.13;3.00;;;21.00;44.10;;;;;;4990467;28;20480;-51
2023/09/05 08:08:32;;;;;;;5.67;2.93;;;21.10;47.00;;;;;;4991092;28;20473;-50
2023/09/05 08:10:58;;;;;;;7.60;3.40;;;21.30;60.10;;;;;;4987196;28;20916;-51
2023/09/05 08:13:25;;;;;;;6.53;3.00;;;21.40;65.70;;;;;;4988838;28;20999;-50
2023/09/05 08:15:54;;;;;;;8.00;3.23;;;21.60;82.10;;;;;;4991303;28;21050;-50
2023/09/05 08:18:20;;;;;;;6.43;3.40;;;21.50;87.10;;;;;;4992496;28;20487;-50
2023/09/05 08:20:47;;;;;;;9.80;3.20;;;21.50;81.50;;;;;;4989967;28;20587;-50
2023/09/05 08:23:14;;;;;;;4.27;3.60;;;21.60;79.20;;;;;;4989691;28;20552;-51
2023/09/05 08:25:40;;;;;;;4.67;2.70;;;21.60;84.50;;;;;;4989991;28;20548;-50
2023/09/05 08:28:09;;;;;;;10.43;3.80;;;21.70;82.90;;;;;;4992242;28;20931;-50
2023/09/05 08:30:35;;;;;;;5.47;2.70;;;21.70;89.70;;;;;;4989580;28;20463;-49
2023/09/05 08:33:04;;;;;;;4.90;3.23;;;21.90;88.50;;;;;;4987901;28;20589;-50
2023/09/05 08:35:30;;;;;;;3.23;3.00;;;21.90;99.90;;;;;;4989958;28;20984;-51
2023/09/05 08:38:02;;;;;;;8.83;2.60;;;22.10;99.90;;;;;;4990811;28;20909;-50
2023/09/05 08:40:29;;;;;;;3.33;3.03;;;22.20;99.90;;;;;;4987654;28;20539;-51
2023/09/05 08:42:55;;;;;;;4.23;2.47;;;22.20;99.90;;;;;;4990274;28;20560;-50
2023/09/05 08:45:23;;;;;;;2.83;2.57;;;22.30;99.90;;;;;;4986146;28;20555;-50
2023/09/05 08:47:50;;;;;;;3.23;2.80;;;22.30;99.90;;;;;;4991123;28;20480;-50
2023/09/05 08:50:18;;;;;;;3.20;2.40;;;22.40;99.90;;;;;;4985741;28;20572;-57
2023/09/05 08:52:47;;;;;;;6.23;2.80;;;22.50;99.90;;;;;;4988472;28;20538;-50
2023/09/05 08:55:14;;;;;;;2.90;2.40;;;22.70;99.90;;;;;;4985939;28;20551;-49
2023/09/05 08:57:44;;;;;;;2.67;2.47;;;23.00;99.90;;;;;;4985613;28;20457;-50
2023/09/05 09:00:12;;;;;;;5.57;2.97;;;23.20;99.90;;;;;;4985600;28;20764;-51
2023/09/05 09:02:38;;;;;;;4.47;2.57;;;23.30;99.90;;;;;;4986759;28;20512;-50
2023/09/05 09:05:05;;;;;;;14.30;2.70;;;23.40;99.90;;;;;;4988518;28;20548;-50
2023/09/05 09:07:33;;;;;;;2.93;2.60;;;23.80;99.90;;;;;;4989698;28;20476;-50
2023/09/05 09:10:15;;;;;;;4.33;2.60;;;24.00;99.90;;;;;;4992285;28;20488;-50
2023/09/05 09:12:42;;;;;;;7.43;2.67;;;24.00;99.90;;;;;;4988332;28;20563;-50
2023/09/05 09:15:10;;;;;;;2.80;2.60;;;23.90;99.90;;;;;;4988073;28;20601;-49
2023/09/05 09:17:36;;;;;;;2.77;2.00;;;24.00;99.90;;;;;;4988884;28;20465;-50
2023/09/05 09:20:04;;;;;;;11.13;2.60;;;24.00;99.90;;;;;;4989543;28;20539;-52
2023/09/05 09:22:30;;;;;;;4.60;2.77;;;24.10;99.90;;;;;;4987678;28;20915;-50
2023/09/05 09:24:59;;;;;;;2.97;2.20;;;24.40;99.90;;;;;;4985722;28;20499;-51
2023/09/05 09:27:25;;;;;;;10.33;2.23;;;24.50;99.90;;;;;;4987110;28;20477;-50
2023/09/05 09:29:53;;;;;;;2.20;2.10;;;24.60;99.90;;;;;;4989848;28;20503;-50
2023/09/05 09:32:22;;;;;;;2.20;1.93;;;24.70;99.90;;;;;;4984348;28;20512;-50
2023/09/05 09:34:50;;;;;;;5.63;2.67;;;24.70;99.90;;;;;;4985235;28;20543;-50
2023/09/05 09:37:24;;;;;;;2.33;2.00;;;24.70;99.90;;;;;;4980593;28;21026;-50
2023/09/05 09:39:56;;;;;;;4.30;2.07;;;24.70;99.90;;;;;;4981019;28;21526;-50
2023/09/05 09:42:24;;;;;;;8.10;1.90;;;24.80;99.90;;;;;;4981353;28;20932;-51
2023/09/05 09:44:52;;;;;;;5.47;1.83;;;24.90;99.90;;;;;;4983674;28;20568;-51
2023/09/05 09:47:19;;;;;;;2.53;2.33;;;25.00;99.90;;;;;;4985868;28;20477;-51
2023/09/05 09:49:50;;;;;;;11.20;1.87;;;25.00;99.90;;;;;;4984271;28;20564;-50
2023/09/05 09:52:19;;;;;;;4.57;1.70;;;25.10;99.90;;;;;;4983851;28;20480;-50
2023/09/05 09:54:47;;;;;;;1.93;1.83;;;25.10;99.90;;;;;;4983382;28;20456;-50
2023/09/05 09:57:23;;;;;;;3.80;1.70;;;25.20;99.90;;;;;;4980272;28;20587;-52
2023/09/05 09:59:56;;;;;;;5.90;2.10;;;25.20;99.90;;;;;;4988177;28;20538;-50
2023/09/05 10:02:22;;;;;;;4.60;2.20;;;25.30;99.90;;;;;;5050040;22;20489;-51
2023/09/05 10:04:53;;;;;;;3.90;1.80;;;25.40;99.90;;;;;;5013257;28;20468;-51
2023/09/05 10:07:20;;;;;;;2.27;2.07;;;25.70;99.90;;;;;;5008046;28;20851;-50
2023/09/05 10:09:47;;;;;;;21.53;1.80;;;26.10;99.90;;;;;;5010699;28;20551;-50
2023/09/05 10:12:18;;;;;;;1.97;1.87;;;26.90;99.90;;;;;;5008040;28;20566;-50
2023/09/05 10:14:46;;;;;;;2.43;2.23;;;27.40;99.90;;;;;;5010382;28;20463;-50
2023/09/05 10:17:16;;;;;;;8.23;1.90;;;27.60;99.90;;;;;;5004524;28;20509;-50
2023/09/05 10:19:44;;;;;;;4.60;2.00;;;28.40;99.90;;;;;;5016454;28;20559;-49
2023/09/05 10:22:11;;;;;;;1.80;1.70;;;29.30;99.90;;;;;;5007852;28;20606;-50
2023/09/05 10:24:39;;;;;;;3.63;2.20;;;29.40;99.90;;;;;;5005569;28;20908;-49
2023/09/05 10:27:06;;;;;;;4.00;2.00;;;29.40;99.90;;;;;;5004556;28;21040;-49
2023/09/05 10:29:34;;;;;;;2.33;2.03;;;29.40;99.90;;;;;;5008022;28;20495;-50
2023/09/05 10:32:02;;;;;;;3.03;1.83;;;29.80;99.90;;;;;;5014970;28;20627;-50
2023/09/05 10:34:55;;;;;;;2.27;1.90;;;29.30;99.90;;;;;;5010740;28;20499;-50
2023/09/05 10:37:26;;;;;;;3.43;1.80;;;29.50;99.90;;;;;;5008739;28;21024;-49
2023/09/05 10:39:56;;;;;;;2.10;1.70;;;29.50;99.90;;;;;;5014187;28;20957;-51
2023/09/05 10:42:30;;;;;;;2.30;2.10;;;29.90;99.90;;;;;;5014818;28;20479;-50
2023/09/05 10:44:57;;;;;;;21.30;1.70;;;29.20;99.90;;;;;;5011887;28;20471;-50
2023/09/05 10:47:25;;;;;;;4.50;2.13;;;29.20;99.90;;;;;;5006649;28;20583;-49
2023/09/05 10:49:58;;;;;;;23.47;1.90;;;28.60;99.90;;;;;;5012613;28;20958;-50
2023/09/05 10:52:27;;;;;;;2.40;1.73;;;29.30;99.90;;;;;;5007846;28;20601;-49
2023/09/05 10:54:53;;;;;;;6.93;2.27;;;29.20;99.90;;;;;;5008694;28;20467;-50
2023/09/05 10:57:37;;;;;;;3.00;1.90;;;29.50;99.90;;;;;;5009891;28;20538;-49
2023/09/05 11:00:26;;;;;;;7.40;1.77;;;29.00;99.90;;;;;;5007498;28;20471;-49
2023/09/05 11:02:55;;;;;;;2.00;1.90;;;28.90;99.90;;;;;;5006037;28;20648;-50
2023/09/05 11:05:27;;;;;;;2.00;1.70;;;29.20;99.90;;;;;;5010169;28;20511;-50
2023/09/05 11:07:55;;;;;;;8.37;1.80;;;28.30;99.90;;;;;;5008518;28;20483;-50
2023/09/05 11:10:26;;;;;;;2.50;1.80;;;28.20;99.90;;;;;;5011493;28;20977;-50
2023/09/05 11:12:53;;;;;;;3.10;1.70;;;28.80;99.90;;;;;;5007164;28;20483;-50
2023/09/05 11:15:30;;;;;;;1.80;1.70;;;28.50;99.90;;;;;;5008683;28;20539;-50
2023/09/05 11:18:00;;;;;;;7.40;1.77;;;27.70;99.90;;;;;;5011214;28;20458;-50
2023/09/05 11:20:39;;;;;;;5.50;2.13;;;27.90;99.90;;;;;;5011397;28;20578;-50
2023/09/05 11:23:13;;;;;;;6.47;2.17;;;27.90;99.90;;;;;;5009595;28;20490;-50
2023/09/05 11:25:42;;;;;;;11.90;2.00;;;28.70;99.90;;;;;;5011353;28;20463;-50
2023/09/05 11:28:09;;;;;;;3.87;1.90;;;28.60;99.90;;;;;;5007749;28;20977;-50
2023/09/05 11:30:37;;;;;;;2.17;1.90;;;28.10;99.90;;;;;;5012871;28;20503;-50
2023/09/05 11:33:07;;;;;;;10.23;1.87;;;28.00;99.90;;;;;;5006027;28;20578;-50
2023/09/05 11:35:35;;;;;;;2.40;2.30;;;27.70;99.90;;;;;;5008527;28;20792;-50
2023/09/05 11:38:03;;;;;;;2.23;1.90;;;27.30;99.90;;;;;;5015831;28;20465;-50
2023/09/05 11:40:30;;;;;;;2.03;1.90;;;27.20;99.90;;;;;;5007517;28;20463;-50
2023/09/05 11:43:03;;;;;;;7.30;2.20;;;27.10;99.90;;;;;;5022101;23;20519;-52
2023/09/05 11:45:30;;;;;;;3.20;2.40;;;27.20;99.90;;;;;;4992046;28;20478;-53
2023/09/05 11:47:58;;;;;;;5.03;2.03;;;27.20;99.90;;;;;;4991037;28;21196;-52
2023/09/05 11:50:25;;;;;;;9.90;2.10;;;27.20;99.90;;;;;;4993256;28;20488;-51
2023/09/05 11:52:53;;;;;;;8.73;2.43;;;27.10;99.90;;;;;;4990160;28;20527;-51
2023/09/05 11:55:23;;;;;;;11.50;2.10;;;27.60;99.90;;;;;;4991611;28;20555;-52
2023/09/05 11:57:52;;;;;;;2.37;1.30;;;27.40;99.90;;;;;;4992196;28;20488;-52
2023/09/05 12:00:19;;;;;;;4.53;2.33;;;27.40;99.90;;;;;;4989051;28;20523;-51
2023/09/05 12:02:46;;;;;;;1.77;1.53;;;27.60;99.90;;;;;;5000600;28;20835;-52
2023/09/05 12:05:14;;;;;;;2.43;2.00;;;27.60;99.90;;;;;;4990630;28;20565;-53
2023/09/05 12:07:40;;;;;;;3.47;1.77;;;27.60;99.90;;;;;;4989717;28;20571;-51
2023/09/05 12:10:09;;;;;;;2.17;1.97;;;27.60;99.90;;;;;;4991591;28;20465;-52
2023/09/05 12:12:37;;;;;;;3.00;1.47;;;27.90;99.90;;;;;;4987109;28;20528;-51
2023/09/05 12:15:04;;;;;;;9.80;2.27;;;27.90;99.90;;;;;;4991081;28;20547;-53
2023/09/05 12:17:31;;;;;;;4.17;1.67;;;28.20;99.90;;;;;;4991978;28;20518;-51
2023/09/05 12:19:58;;;;;;;3.97;2.33;;;27.90;99.90;;;;;;4991575;28;20552;-51
2023/09/05 12:22:27;;;;;;;1.63;1.50;;;27.70;99.90;;;;;;4989151;28;20575;-52
2023/09/05 12:25:15;;;;;;;1.83;1.37;;;27.80;99.90;;;;;;4990520;28;20472;-51
2023/09/05 12:27:44;;;;;;;2.60;1.70;;;27.70;99.90;;;;;;4985013;28;20504;-53
2023/09/05 12:30:28;;;;;;;5.80;1.70;;;27.80;99.90;;;;;;4990512;28;20499;-52
2023/09/05 12:32:57;;;;;;;3.80;1.37;;;27.90;99.90;;;;;;4988905;28;20511;-51
2023/09/05 12:35:25;;;;;;;8.90;1.60;;;28.40;99.90;;;;;;4995379;28;20488;-52
2023/09/05 12:37:52;;;;;;;2.77;1.30;;;29.00;99.90;;;;;;4988106;28;20524;-51
2023/09/05 12:40:19;;;;;;;6.80;1.50;;;29.40;99.90;;;;;;4992309;28;20500;-52
2023/09/05 12:42:46;;;;;;;1.93;1.50;;;29.70;99.90;;;;;;4992218;28;20484;-52
2023/09/05 12:45:14;;;;;;;1.57;1.47;;;29.80;99.90;;;;;;4988450;28;20488;-53
2023/09/05 12:47:41;;;;;;;3.60;1.30;;;30.30;99.90;;;;;;4988905;28;20571;-52
2023/09/05 12:50:12;;;;;;;1.90;1.53;;;30.30;99.90;;;;;;4991782;28;20543;-52
2023/09/05 12:52:39;;;;;;;6.80;1.57;;;29.70;99.90;;;;;;4984510;28;20480;-52
2023/09/05 12:55:06;;;;;;;1.70;1.57;;;29.60;99.90;;;;;;4991829;28;20457;-52
2023/09/05 12:57:33;;;;;;;1.70;1.60;;;29.10;99.90;;;;;;4988398;28;20468;-53